Thargomindah, Australia
Current Conditions -  °F | °C
As of 8:00 AM on Monday 26 Jan 2015 (Local Time) from YBCV Reporting Station
Clear Clear  
Wind Chill: 84°   Ceiling: Unl
Heat Index: 85°   Visibility: 6mi
Dew Point: 63°   Wind: 7mph
Humidity: 48%   Direction: 180°S
Pressure: 29.71"   Gusts: NA
Location:  28°S, 143.82°E
Report Text: YBCV 252200Z 18006KT CAVOK 29/17 Q1006
Loading
Personal Weather Stations






























Interactive Weather Map New forecast layout! Learn more

10-Day Weather Forecast

Advertisements
Track Severe Weather on mobile